createdAt,value
2018-04-25T00:00:29.392Z,11.40
2018-04-25T00:02:56.903Z,11.40
2018-04-25T00:05:25.964Z,11.70
2018-04-25T00:07:53.492Z,11.70
2018-04-25T00:10:21.051Z,11.30
2018-04-25T00:12:48.594Z,11.10
2018-04-25T00:15:16.909Z,11.20
2018-04-25T00:17:44.442Z,11.20
2018-04-25T00:20:12.742Z,10.90
2018-04-25T00:22:40.274Z,10.80
2018-04-25T00:25:07.786Z,10.80
2018-04-25T00:27:35.335Z,11.00
2018-04-25T00:30:02.857Z,10.90
2018-04-25T00:32:30.375Z,11.00
2018-04-25T00:34:57.899Z,10.70
2018-04-25T00:37:25.450Z,10.70
2018-04-25T00:39:52.996Z,10.80
2018-04-25T00:42:20.524Z,10.80
2018-04-25T00:44:48.413Z,10.70
2018-04-25T00:47:15.960Z,10.60
2018-04-25T00:49:44.264Z,10.20
2018-04-25T00:52:11.814Z,10.20
2018-04-25T00:54:39.354Z,10.40
2018-04-25T00:57:07.637Z,10.30
2018-04-25T00:59:35.958Z,10.40
2018-04-25T01:02:03.484Z,10.40
2018-04-25T01:04:31.003Z,10.40
2018-04-25T01:06:58.552Z,10.20
2018-04-25T01:09:26.069Z,10.10
2018-04-25T01:11:53.628Z,10.00
2018-04-25T01:14:21.142Z,10.10
2018-04-25T01:16:48.692Z,9.90
2018-04-25T01:19:16.239Z,10.00
2018-04-25T01:21:43.756Z,10.10
2018-04-25T01:24:11.296Z,10.00
2018-04-25T01:26:38.854Z,10.20
2018-04-25T01:29:06.396Z,10.30
2018-04-25T01:31:40.771Z,10.30
2018-04-25T01:34:14.051Z,10.30
2018-04-25T01:36:43.859Z,10.30
2018-04-25T01:39:13.951Z,10.20
2018-04-25T01:41:42.991Z,10.20
2018-04-25T01:44:21.529Z,10.20
2018-04-25T01:46:51.925Z,10.20
2018-04-25T01:49:40.626Z,10.50
2018-04-25T01:52:20.069Z,10.40
2018-04-25T01:54:59.306Z,10.30
2018-04-25T01:57:38.634Z,10.20
2018-04-25T02:00:18.128Z,10.50
2018-04-25T02:02:57.426Z,10.40
2018-04-25T02:05:24.962Z,10.50
2018-04-25T02:07:52.505Z,10.50
2018-04-25T02:10:20.043Z,10.30
2018-04-25T02:12:47.585Z,10.00
2018-04-25T02:15:15.893Z,9.90
2018-04-25T02:17:43.439Z,9.90
2018-04-25T02:20:10.947Z,9.80
2018-04-25T02:22:38.469Z,9.90
2018-04-25T02:25:06.319Z,9.80
2018-04-25T02:27:33.943Z,10.00
2018-04-25T02:30:01.436Z,9.90
2018-04-25T02:32:28.956Z,9.60
2018-04-25T02:34:56.515Z,9.60
2018-04-25T02:37:24.071Z,9.70
2018-04-25T02:39:51.583Z,9.70
2018-04-25T02:42:19.123Z,9.80
2018-04-25T02:44:46.667Z,9.80
2018-04-25T02:47:14.175Z,10.10
2018-04-25T02:49:41.687Z,10.10
2018-04-25T02:52:09.962Z,10.10
2018-04-25T02:54:37.477Z,10.10
2018-04-25T02:57:05.021Z,10.20
2018-04-25T02:59:32.545Z,10.20
2018-04-25T03:02:00.088Z,10.20
2018-04-25T03:04:28.407Z,10.00
2018-04-25T03:06:55.913Z,9.90
2018-04-25T03:09:23.463Z,9.90
2018-04-25T03:11:50.979Z,9.90
2018-04-25T03:14:18.523Z,9.70
2018-04-25T03:16:46.077Z,9.80
2018-04-25T03:19:13.596Z,9.60
2018-04-25T03:21:41.140Z,9.70
2018-04-25T03:24:08.661Z,9.80
2018-04-25T03:26:36.180Z,9.80
2018-04-25T03:29:03.728Z,9.90
2018-04-25T03:31:31.262Z,9.90
2018-04-25T03:33:58.828Z,9.70
2018-04-25T03:36:26.389Z,9.90
2018-04-25T03:38:53.908Z,9.80
2018-04-25T03:41:21.419Z,9.80
2018-04-25T03:43:48.939Z,9.80
2018-04-25T03:46:16.453Z,9.80
2018-04-25T03:48:44.001Z,9.90
2018-04-25T03:51:11.561Z,9.70
2018-04-25T03:53:39.928Z,9.90
2018-04-25T03:56:07.475Z,9.90
2018-04-25T03:58:35.011Z,9.70
2018-04-25T04:01:02.548Z,9.60
2018-04-25T04:03:30.110Z,9.40
2018-04-25T04:05:57.670Z,9.60
2018-04-25T04:08:25.222Z,9.40
2018-04-25T04:10:52.772Z,9.60
2018-04-25T04:13:21.091Z,9.90
2018-04-25T04:15:48.614Z,9.90
2018-04-25T04:18:16.154Z,9.50
2018-04-25T04:20:43.695Z,9.40
2018-04-25T04:23:11.250Z,9.50
2018-04-25T04:25:38.764Z,9.70
2018-04-25T04:28:06.299Z,9.60
2018-04-25T04:30:34.695Z,9.60
2018-04-25T04:33:03.225Z,9.50
2018-04-25T04:35:30.777Z,9.80
2018-04-25T04:37:58.291Z,9.80
2018-04-25T04:40:26.564Z,9.80
2018-04-25T04:42:54.872Z,9.80
2018-04-25T04:45:22.425Z,9.80
2018-04-25T04:47:49.951Z,9.80
2018-04-25T04:50:18.254Z,9.80
2018-04-25T04:52:45.783Z,9.80
2018-04-25T04:55:13.351Z,9.70
2018-04-25T04:57:41.655Z,10.20
2018-04-25T05:00:09.212Z,10.20
2018-04-25T05:02:36.731Z,10.20
2018-04-25T05:05:05.057Z,10.30
2018-04-25T05:07:32.652Z,10.30
2018-04-25T05:10:00.204Z,10.10
2018-04-25T05:12:27.711Z,10.20
2018-04-25T05:14:55.258Z,10.00
2018-04-25T05:17:23.543Z,10.00
2018-04-25T05:19:51.590Z,9.90
2018-04-25T05:22:19.108Z,10.10
2018-04-25T05:24:46.651Z,10.00
2018-04-25T05:27:14.212Z,10.10
2018-04-25T05:29:41.735Z,10.10
2018-04-25T05:32:10.091Z,10.30
2018-04-25T05:34:37.622Z,10.30
2018-04-25T05:37:05.157Z,10.50
2018-04-25T05:39:32.712Z,10.50
2018-04-25T05:42:00.261Z,10.80
2018-04-25T05:44:27.821Z,10.70
2018-04-25T05:46:55.395Z,10.80
2018-04-25T05:49:22.938Z,11.00
2018-04-25T05:51:50.529Z,11.10
2018-04-25T05:54:18.788Z,11.10
2018-04-25T05:56:46.353Z,11.10
2018-04-25T05:59:13.906Z,11.10
2018-04-25T06:01:41.439Z,11.20
2018-04-25T06:04:08.967Z,11.30
2018-04-25T06:06:36.533Z,11.40
2018-04-25T06:09:04.933Z,11.60
2018-04-25T06:11:32.511Z,11.60
2018-04-25T06:14:00.078Z,11.80
2018-04-25T06:16:27.610Z,12.00
2018-04-25T06:18:55.130Z,12.10
2018-04-25T06:21:22.668Z,12.30
2018-04-25T06:23:50.224Z,12.90
2018-04-25T06:26:17.749Z,13.10
2018-04-25T06:28:45.272Z,13.50
2018-04-25T06:31:12.822Z,14.10
2018-04-25T06:33:40.424Z,14.00
2018-04-25T06:36:07.944Z,14.00
2018-04-25T06:38:35.488Z,14.00
2018-04-25T06:41:03.034Z,14.50
2018-04-25T06:43:30.557Z,15.00
2018-04-25T06:45:58.838Z,15.50
2018-04-25T06:48:27.121Z,15.80
2018-04-25T06:50:54.641Z,15.80
2018-04-25T06:53:22.152Z,16.00
2018-04-25T06:55:49.703Z,16.00
2018-04-25T06:58:17.231Z,16.20
2018-04-25T07:00:44.784Z,16.20
2018-04-25T07:03:13.091Z,16.40
2018-04-25T07:05:40.645Z,16.40
2018-04-25T07:08:08.211Z,16.40
2018-04-25T07:10:35.733Z,16.40
2018-04-25T07:13:03.252Z,16.40
2018-04-25T07:15:30.771Z,16.60
2018-04-25T07:17:59.080Z,16.80
2018-04-25T07:20:26.592Z,16.70
2018-04-25T07:22:54.145Z,16.80
2018-04-25T07:25:22.431Z,17.20
2018-04-25T07:27:50.712Z,17.00
2018-04-25T07:30:19.000Z,17.00
2018-04-25T07:32:46.521Z,17.00
2018-04-25T07:35:14.799Z,17.20
2018-04-25T07:37:43.090Z,17.20
2018-04-25T07:40:10.642Z,17.10
2018-04-25T07:42:38.971Z,16.80
2018-04-25T07:45:06.530Z,16.80
2018-04-25T07:47:34.042Z,17.20
2018-04-25T07:50:02.365Z,17.60
2018-04-25T07:52:29.884Z,17.60
2018-04-25T07:54:57.430Z,17.50
2018-04-25T07:57:25.751Z,17.90
2018-04-25T07:59:53.297Z,17.90
2018-04-25T08:02:20.857Z,18.10
2018-04-25T08:04:48.372Z,17.90
2018-04-25T08:07:15.931Z,17.30
2018-04-25T08:09:43.460Z,17.10
2018-04-25T08:12:22.799Z,16.90
2018-04-25T08:15:02.947Z,17.20
2018-04-25T08:17:42.243Z,17.20
2018-04-25T08:23:15.799Z,17.20
2018-04-25T08:25:43.354Z,17.20
2018-04-25T08:28:10.917Z,17.00
2018-04-25T08:30:38.491Z,17.10
2018-04-25T08:33:06.007Z,17.50
2018-04-25T08:35:33.557Z,17.80
2018-04-25T08:38:01.890Z,17.80
2018-04-25T08:40:29.407Z,17.70
2018-04-25T08:42:56.923Z,17.70
2018-04-25T08:45:24.445Z,18.10
2018-04-25T08:47:52.576Z,18.10
2018-04-25T08:50:20.144Z,18.40
2018-04-25T08:52:48.513Z,17.90
2018-04-25T08:55:16.042Z,17.90
2018-04-25T08:57:43.610Z,17.70
2018-04-25T09:00:11.136Z,17.70
2018-04-25T09:02:38.675Z,17.50
2018-04-25T09:05:07.000Z,17.10
2018-04-25T09:07:34.549Z,17.10
2018-04-25T09:10:02.083Z,17.10
2018-04-25T09:12:29.621Z,17.10
2018-04-25T09:14:57.133Z,17.10
2018-04-25T09:17:24.679Z,17.10
2018-04-25T09:19:52.209Z,17.20
2018-04-25T09:22:19.770Z,17.20
2018-04-25T09:24:47.342Z,17.20
2018-04-25T09:27:14.918Z,17.20
2018-04-25T09:29:42.446Z,17.20
2018-04-25T09:32:09.972Z,17.20
2018-04-25T09:34:38.290Z,17.30
2018-04-25T09:37:05.821Z,17.20
2018-04-25T09:39:33.368Z,17.30
2018-04-25T09:42:01.671Z,17.30
2018-04-25T09:44:29.182Z,17.30
2018-04-25T09:46:56.747Z,17.40
2018-04-25T09:49:25.095Z,17.30
2018-04-25T09:51:52.728Z,17.30
2018-04-25T09:54:20.238Z,17.60
2018-04-25T09:56:47.812Z,17.70
2018-04-25T09:59:15.354Z,18.10
2018-04-25T10:01:42.894Z,18.10
2018-04-25T10:04:11.683Z,18.40
2018-04-25T10:06:39.864Z,18.40
2018-04-25T10:09:07.381Z,18.10
2018-04-25T10:11:34.923Z,17.80
2018-04-25T10:14:02.470Z,17.60
2018-04-25T10:16:30.751Z,17.30
2018-04-25T10:18:59.046Z,17.20
2018-04-25T10:21:26.575Z,17.20
2018-04-25T10:23:54.863Z,17.10
2018-04-25T10:26:22.377Z,17.10
2018-04-25T10:28:49.932Z,17.10
2018-04-25T10:31:17.457Z,17.00
2018-04-25T10:33:45.027Z,17.00
2018-04-25T10:36:12.574Z,17.00
2018-04-25T10:38:40.125Z,17.00
2018-04-25T10:41:07.668Z,17.00
2018-04-25T10:43:35.220Z,17.10
2018-04-25T10:46:03.521Z,18.10
2018-04-25T10:48:31.865Z,17.90
2018-04-25T10:50:59.369Z,17.90
2018-04-25T10:53:26.924Z,17.80
2018-04-25T10:55:54.448Z,17.60
2018-04-25T10:58:22.002Z,17.60
2018-04-25T11:00:49.561Z,17.60
2018-04-25T11:03:17.090Z,17.70
2018-04-25T11:05:44.635Z,17.70
2018-04-25T11:08:12.236Z,17.70
2018-04-25T11:10:39.690Z,17.70
2018-04-25T11:13:07.258Z,18.40
2018-04-25T11:15:34.828Z,18.40
2018-04-25T11:18:03.117Z,18.10
2018-04-25T11:20:31.435Z,18.10
2018-04-25T11:22:58.954Z,18.10
2018-04-25T11:25:27.234Z,18.00
2018-04-25T11:27:54.756Z,17.90
2018-04-25T11:30:22.298Z,17.80
2018-04-25T11:32:49.817Z,17.70
2018-04-25T11:35:17.333Z,17.60
2018-04-25T11:37:44.851Z,17.50
2018-04-25T11:40:12.396Z,17.40
2018-04-25T11:42:39.960Z,17.30
2018-04-25T11:45:07.494Z,17.20
2018-04-25T11:47:35.048Z,17.20
2018-04-25T11:50:02.599Z,17.20
2018-04-25T11:52:30.184Z,17.10
2018-04-25T11:54:57.743Z,17.10
2018-04-25T11:57:25.260Z,17.00
2018-04-25T11:59:52.824Z,17.00
2018-04-25T12:02:20.379Z,17.00
2018-04-25T12:04:47.937Z,16.90
2018-04-25T12:07:15.471Z,16.90
2018-04-25T12:09:43.029Z,17.00
2018-04-25T12:12:10.606Z,17.10
2018-04-25T12:14:38.176Z,17.50
2018-04-25T12:17:05.719Z,17.90
2018-04-25T12:19:33.264Z,18.00
2018-04-25T12:22:00.887Z,18.10
2018-04-25T12:24:28.455Z,18.20
2018-04-25T12:26:55.969Z,18.00
2018-04-25T12:29:23.554Z,18.00
2018-04-25T12:31:51.096Z,17.80
2018-04-25T12:34:19.393Z,17.40
2018-04-25T12:36:46.954Z,17.40
2018-04-25T12:39:14.512Z,17.40
2018-04-25T12:41:42.875Z,17.30
2018-04-25T12:44:10.343Z,17.30
2018-04-25T12:46:38.625Z,17.40
2018-04-25T12:49:06.907Z,17.40
2018-04-25T12:51:34.436Z,17.40
2018-04-25T12:54:02.026Z,17.40
2018-04-25T12:56:29.503Z,17.40
2018-04-25T12:58:57.011Z,17.40
2018-04-25T13:01:24.572Z,17.50
2018-04-25T13:03:52.866Z,17.50
2018-04-25T13:06:20.417Z,17.50
2018-04-25T13:08:48.702Z,17.40
2018-04-25T13:11:16.998Z,17.40
2018-04-25T13:13:44.566Z,17.40
2018-04-25T13:16:12.079Z,17.50
2018-04-25T13:18:40.397Z,17.50
2018-04-25T13:21:07.929Z,17.50
2018-04-25T13:23:35.450Z,17.50
2018-04-25T13:26:02.971Z,17.50
2018-04-25T13:28:30.498Z,17.60
2018-04-25T13:30:58.002Z,17.60
2018-04-25T13:33:25.564Z,17.60
2018-04-25T13:35:53.109Z,18.00
2018-04-25T13:38:20.704Z,18.80
2018-04-25T13:40:48.251Z,19.20
2018-04-25T13:43:15.794Z,19.40
2018-04-25T13:45:43.323Z,19.10
2018-04-25T13:48:10.842Z,18.90
2018-04-25T13:50:38.391Z,18.90
2018-04-25T13:53:05.911Z,18.70
2018-04-25T13:55:33.423Z,19.10
2018-04-25T13:58:00.960Z,19.80
2018-04-25T14:00:28.514Z,19.50
2018-04-25T14:02:56.063Z,19.60
2018-04-25T14:05:23.630Z,19.70
2018-04-25T14:07:51.446Z,19.40
2018-04-25T14:10:19.737Z,19.40
2018-04-25T14:12:47.329Z,19.40
2018-04-25T14:15:14.844Z,19.20
2018-04-25T14:17:42.362Z,19.40
2018-04-25T14:20:09.912Z,19.40
2018-04-25T14:22:37.454Z,19.30
2018-04-25T14:25:04.973Z,19.40
2018-04-25T14:27:33.275Z,19.40
2018-04-25T14:30:00.859Z,19.40
2018-04-25T14:32:28.404Z,19.10
2018-04-25T14:34:55.970Z,19.20
2018-04-25T14:37:23.506Z,19.30
2018-04-25T14:39:51.070Z,19.40
2018-04-25T14:42:18.594Z,19.30
2018-04-25T14:44:46.926Z,19.00
2018-04-25T14:47:14.485Z,19.00
2018-04-25T14:49:42.010Z,19.10
2018-04-25T14:52:10.298Z,19.20
2018-04-25T14:54:37.899Z,19.20
2018-04-25T14:57:05.415Z,19.10
2018-04-25T14:59:32.967Z,19.00
2018-04-25T15:02:00.515Z,19.10
2018-04-25T15:04:28.803Z,18.60
2018-04-25T15:06:57.092Z,18.70
2018-04-25T15:09:24.611Z,18.70
2018-04-25T15:11:52.127Z,18.90
2018-04-25T15:14:19.647Z,18.80
2018-04-25T15:16:47.985Z,17.70
2018-04-25T15:19:15.569Z,17.70
2018-04-25T15:21:43.859Z,17.60
2018-04-25T15:24:12.275Z,17.40
2018-04-25T15:26:39.791Z,17.30
2018-04-25T15:29:08.119Z,17.00
2018-04-25T15:31:35.654Z,17.00
2018-04-25T15:34:03.172Z,16.90
2018-04-25T15:36:30.696Z,16.80
2018-04-25T15:38:58.211Z,16.80
2018-04-25T15:41:25.780Z,16.70
2018-04-25T15:43:53.379Z,16.60
2018-04-25T15:46:20.920Z,16.40
2018-04-25T15:48:48.460Z,16.20
2018-04-25T15:51:16.011Z,16.00
2018-04-25T15:53:43.573Z,16.00
2018-04-25T15:56:11.089Z,16.00
2018-04-25T15:58:38.632Z,15.90
2018-04-25T16:01:06.193Z,15.90
2018-04-25T16:03:33.713Z,15.80
2018-04-25T16:06:01.255Z,15.90
2018-04-25T16:08:28.804Z,15.80
2018-04-25T16:10:57.153Z,15.70
2018-04-25T16:13:24.691Z,15.70
2018-04-25T16:15:52.371Z,15.60
2018-04-25T16:18:19.916Z,15.50
2018-04-25T16:20:47.428Z,15.40
2018-04-25T16:23:14.971Z,15.40
2018-04-25T16:25:42.503Z,15.50
2018-04-25T16:28:10.028Z,15.70
2018-04-25T16:30:37.590Z,15.70
2018-04-25T16:33:05.099Z,15.60
2018-04-25T16:35:32.639Z,15.70
2018-04-25T16:38:00.219Z,15.50
2018-04-25T16:40:27.745Z,15.50
2018-04-25T16:42:55.327Z,15.40
2018-04-25T16:45:22.862Z,15.30
2018-04-25T16:47:50.389Z,15.20
2018-04-25T16:50:17.928Z,15.10
2018-04-25T16:52:45.444Z,15.20
2018-04-25T16:55:12.966Z,15.10
2018-04-25T16:57:40.529Z,15.10
2018-04-25T17:00:08.092Z,15.20
2018-04-25T17:02:35.668Z,15.20
2018-04-25T17:05:03.219Z,15.10
2018-04-25T17:07:30.767Z,15.10
2018-04-25T17:09:58.316Z,15.10
2018-04-25T17:12:25.855Z,15.00
2018-04-25T17:14:53.415Z,15.00
2018-04-25T17:17:21.704Z,15.00
2018-04-25T17:19:50.024Z,15.10
2018-04-25T17:22:17.549Z,15.10
2018-04-25T17:24:45.118Z,15.10
2018-04-25T17:27:12.673Z,15.10
2018-04-25T17:29:40.199Z,15.10
2018-04-25T17:32:07.739Z,15.10
2018-04-25T17:34:35.326Z,15.00
2018-04-25T17:37:03.654Z,15.00
2018-04-25T17:39:31.211Z,15.00
2018-04-25T17:41:58.762Z,15.00
2018-04-25T17:44:26.313Z,15.00
2018-04-25T17:46:53.833Z,14.90
2018-04-25T17:49:22.176Z,15.10
2018-04-25T17:51:49.704Z,15.00
2018-04-25T17:54:17.223Z,15.00
2018-04-25T17:56:45.525Z,14.90
2018-04-25T17:59:13.867Z,15.00
2018-04-25T18:01:41.436Z,15.00
2018-04-25T18:04:09.735Z,14.80
2018-04-25T18:06:37.307Z,14.80
2018-04-25T18:09:04.891Z,14.80
2018-04-25T18:11:32.477Z,14.90
2018-04-25T18:14:00.097Z,14.90
2018-04-25T18:16:27.669Z,14.60
2018-04-25T18:18:55.243Z,14.50
2018-04-25T18:21:22.877Z,14.40
2018-04-25T18:23:50.415Z,14.30
2018-04-25T18:26:17.999Z,14.10
2018-04-25T18:28:45.574Z,14.00
2018-04-25T18:31:13.123Z,13.80
2018-04-25T18:33:40.673Z,13.50
2018-04-25T18:36:08.194Z,13.30
2018-04-25T18:38:36.530Z,13.10
2018-04-25T18:41:04.090Z,13.10
2018-04-25T18:43:31.653Z,13.10
2018-04-25T18:45:59.191Z,13.20
2018-04-25T18:48:26.729Z,13.10
2018-04-25T18:50:54.253Z,13.10
2018-04-25T18:53:21.817Z,13.00
2018-04-25T18:55:50.169Z,13.00
2018-04-25T18:58:17.725Z,13.00
2018-04-25T19:00:45.291Z,13.00
2018-04-25T19:03:12.866Z,13.10
2018-04-25T19:05:40.384Z,13.10
2018-04-25T19:08:08.800Z,13.10
2018-04-25T19:10:36.339Z,13.00
2018-04-25T19:13:03.888Z,13.00
2018-04-25T19:15:31.443Z,13.10
2018-04-25T19:17:58.975Z,13.10
2018-04-25T19:20:27.308Z,13.30
2018-04-25T19:22:54.910Z,13.20
2018-04-25T19:25:23.240Z,13.40
2018-04-25T19:27:50.858Z,13.40
2018-04-25T19:30:18.385Z,13.40
2018-04-25T19:32:45.930Z,13.40
2018-04-25T19:35:13.494Z,13.40
2018-04-25T19:37:41.044Z,13.30
2018-04-25T19:40:08.601Z,13.10
2018-04-25T19:42:36.125Z,12.90
2018-04-25T19:45:03.683Z,12.80
2018-04-25T19:47:31.264Z,12.80
2018-04-25T19:49:58.846Z,12.80
2018-04-25T19:52:26.378Z,12.80
2018-04-25T19:54:53.912Z,12.80
2018-04-25T19:57:21.493Z,12.70
2018-04-25T19:59:49.265Z,12.70
2018-04-25T20:02:16.792Z,12.60
2018-04-25T20:04:45.132Z,12.80
2018-04-25T20:07:12.667Z,12.70
2018-04-25T20:09:40.184Z,12.80
2018-04-25T20:12:08.483Z,12.80
2018-04-25T20:14:36.055Z,12.80
2018-04-25T20:17:03.615Z,12.70
2018-04-25T20:19:31.213Z,12.70
2018-04-25T20:21:58.743Z,12.70
2018-04-25T20:24:26.298Z,12.70
2018-04-25T20:26:53.859Z,12.70
2018-04-25T20:29:21.428Z,12.70
2018-04-25T20:31:49.008Z,12.80
2018-04-25T20:34:16.586Z,12.70
2018-04-25T20:36:44.884Z,12.80
2018-04-25T20:39:12.438Z,12.80
2018-04-25T20:41:40.814Z,12.80
2018-04-25T20:44:08.370Z,12.80
2018-04-25T20:46:35.922Z,12.90
2018-04-25T20:49:04.240Z,12.80
2018-04-25T20:51:31.791Z,12.80
2018-04-25T20:53:59.384Z,12.80
2018-04-25T20:56:26.967Z,12.70
2018-04-25T20:58:55.267Z,12.70
2018-04-25T21:01:22.819Z,12.70
2018-04-25T21:03:50.356Z,12.70
2018-04-25T21:06:17.878Z,12.70
2018-04-25T21:08:45.438Z,12.60
2018-04-25T21:11:13.032Z,12.60
2018-04-25T21:13:40.485Z,12.70
2018-04-25T21:16:08.038Z,12.50
2018-04-25T21:18:35.609Z,12.60
2018-04-25T21:21:03.159Z,12.60
2018-04-25T21:23:30.681Z,12.60
2018-04-25T21:25:58.238Z,12.60
2018-04-25T21:28:25.769Z,12.70
2018-04-25T21:30:54.096Z,12.60
2018-04-25T21:33:21.628Z,12.60
2018-04-25T21:35:49.147Z,12.60
2018-04-25T21:38:16.694Z,12.60
2018-04-25T21:40:44.261Z,12.60
2018-04-25T21:43:11.827Z,12.60
2018-04-25T21:45:39.351Z,12.60
2018-04-25T21:48:06.857Z,12.50
2018-04-25T21:50:35.154Z,12.60
2018-04-25T21:53:02.701Z,12.50
2018-04-25T21:55:30.266Z,12.50
2018-04-25T21:57:57.853Z,12.50
2018-04-25T22:00:25.355Z,12.50
2018-04-25T22:02:53.684Z,12.50
2018-04-25T22:05:21.236Z,12.50
2018-04-25T22:07:48.801Z,12.50
2018-04-25T22:10:16.361Z,12.60
2018-04-25T22:12:43.883Z,12.50
2018-04-25T22:15:12.173Z,12.50
2018-04-25T22:17:39.694Z,12.50
2018-04-25T22:20:07.223Z,12.50
2018-04-25T22:22:34.732Z,12.50
2018-04-25T22:25:02.283Z,12.40
2018-04-25T22:27:29.832Z,12.40
2018-04-25T22:29:58.125Z,12.30
2018-04-25T22:32:26.461Z,12.20
2018-04-25T22:34:54.016Z,12.20
2018-04-25T22:37:21.558Z,12.20
2018-04-25T22:39:49.078Z,12.20
2018-04-25T22:42:16.619Z,12.20
2018-04-25T22:44:44.148Z,12.00
2018-04-25T22:47:11.683Z,12.10
2018-04-25T22:49:39.217Z,12.00
2018-04-25T22:52:06.768Z,11.90
2018-04-25T22:54:34.291Z,11.90
2018-04-25T22:57:01.803Z,12.00
2018-04-25T22:59:29.340Z,11.90
2018-04-25T23:01:56.885Z,11.90
2018-04-25T23:04:24.428Z,12.00
2018-04-25T23:06:51.983Z,11.90
2018-04-25T23:09:19.516Z,11.80
2018-04-25T23:11:47.034Z,11.80
2018-04-25T23:14:14.560Z,11.80
2018-04-25T23:16:42.279Z,11.80
2018-04-25T23:19:09.819Z,11.80
2018-04-25T23:21:37.343Z,11.80
2018-04-25T23:24:04.882Z,11.80
2018-04-25T23:26:32.391Z,11.70
2018-04-25T23:28:59.937Z,11.60
2018-04-25T23:31:28.225Z,11.60
2018-04-25T23:33:56.536Z,11.60
2018-04-25T23:36:24.115Z,11.60
2018-04-25T23:38:51.664Z,11.50
2018-04-25T23:41:19.183Z,11.60
2018-04-25T23:43:46.735Z,11.50
2018-04-25T23:46:15.067Z,11.40
2018-04-25T23:48:42.623Z,11.40
2018-04-25T23:51:10.175Z,11.40
2018-04-25T23:53:37.731Z,11.50
2018-04-25T23:56:05.295Z,11.50
2018-04-25T23:58:32.856Z,11.50
